Flat, Texas
Current Conditions -  °F | °C
As of 4:15 PM on Sunday 23 Nov 2014 (Local Time) from KGOP Reporting Station
Clear Clear  
Wind Chill: 77°   Ceiling: Unl
Heat Index: 77°   Visibility: 10mi
Dew Point: 37°   Wind: 14mph
Humidity: 24%   Direction: 270°W
Pressure: 29.52"   Gusts: 21mph
Location:  31.31°N, 97.63°W
Report Text: KGOP 232215Z AUTO 27012G18KT 10SM CLR 25/03 A2952 RMK AO2 PWINO
Loading
Personal Weather Stations






























Interactive Weather Map New forecast layout! Learn more

10-Day Weather Forecast

Advertisements
Track Severe Weather on mobile